KSPW Airport (Spencer Muni) Information

FAA: SPW - ICAO: KSPW

KSPW Airport Location

State Iowa
County Clay
City Spencer
KSPW Airport is 3 miles northwest of Spencer, IA.
Latitude 43-09-56.3000N
Longitude 095-12-10.1000W
Elevation 1,339ft

KSPW Airport METARs

METAR KSPW 181353Z AUTO 20004KT 6SM HZ CLR M06/M09 A2961 RMK AO2 SLP044 T10561094
Altimeter 29.61"
Temperature -5.6°C (21.9°F)
Wind 200° at 4KT
Clouds Skies are clear.
Visibility 6.0mi
Time observed: 2022-01-18T13:53:00Z

KSPW Airport Details

Status Operational
Activation March 1942
Ownership Public
Usage Public
Chart OMAHA
ATC on-site No
Beacon schedule sunset-sunrise
Beacon color clear green

KSPW Airport Contacts

Owner CITY OF SPENCER
Owner address 418 2ND AVE WEST, SPENCER, IA 51301
Owner phone 712-580-7200
Manager CHUCK DOUGHERTY
Manager address 300 PERSHING AVE., SHENANDOAH, IA 51601
Manager phone (712) 246-7223

KSPW Airport (Spencer Muni) Radio Frequencies

KSPW (Airport) Radio Frequencies

UNICOM 123
Common traffic advisory frequency (CTAF) 123